Chazy, NY (12921)

9:47 AM EDT on May 25, 2015 (GMT -0400)
Chazy, NY | | Change Station
CLOSE
Current Station
Personal Weather Station
Location: Chazy, NY
Elevation: 167 ft
Nearby Weather Stations

Elev 167 ft 44.88 °N, 73.43 °W | Updated 14 seconds ago

Overcast
Overcast
67.5 °F
Feels Like 67.5 °F
N
5.0
Wind Variable Wind from South
Gusts 9.0 mph

Today
High -- | Low -- °F
--% Chance of Precip.
Yesterday
High -- | Low -- °F
Precip. -- in
5:15 AM 8:26 PM
Waxing Crescent, 49% visible
Pressure 30.17 in
Visibility 10.0 miles
Clouds Overcast 10000 ft
Dew Point 50 °F
Humidity 55%
Rainfall 0.00 in
Snow Depth Not available.
UV 1 out of 12
Pollen 3.30 out of 12
Air Quality Not available.
Flu Activity Widespread
METAR KPBG 251253Z AUTO 13004KT 10SM OVC100 17/09 A3016 RMK AO2 SLP214 T01720094

More Conditions Fewer Conditions

Pressure 30.17 in
Visibility 10.0 miles
Clouds Overcast 10000 ft
Dew Point 50 °F
Humidity 55%
Rainfall 0.00 in
Snow Depth Not available.
UV 1 out of 12
Pollen 3.30 out of 12
Air Quality Not available.
Flu Activity Widespread
METAR KPBG 251253Z AUTO 13004KT 10SM OVC100 17/09 A3016 RMK AO2 SLP214 T01720094

More Conditions Fewer Conditions

10-Day Weather Forecast

Almanac

Astronomy

May. 25, 2015 Rise Set
Actual Time
Civil Twilight
Nautical Twilight
Astronomical Twilight
Moon
Length of Visible Light
Length of Day
Tomorrow will be .
, % of the Moon is Illuminated

Today's Extremes

State Highs State Lows

Community

WunderPhotos

Upload Photos

1,824,009 photos uploaded!

WunderBlogs® & News

Nearby

Air Quality

  Air Quality AQ Index Pollutant
Not available.

Snow Depth

Station Depth Elevation

Earthquake Activity

City Distance Mag. Time & Date
Minimum magnitude displayed is 2.5.

Coastal Water Temperatures

Place Temperature

Stations

Nearby Weather Stations

Station Location Temp. Windchill Dew Point Humidity Wind Precip. Elev Updated Type